createdAt,value
2022-12-29T00:01:56.584Z,18.27
2022-12-29T00:04:25.785Z,18.10
2022-12-29T00:06:55.719Z,18.58
2022-12-29T00:09:27.756Z,18.50
2022-12-29T00:11:56.840Z,16.95
2022-12-29T00:14:43.250Z,17.52
2022-12-29T00:17:12.391Z,19.60
2022-12-29T00:19:59.446Z,19.70
2022-12-29T00:22:46.097Z,19.85
2022-12-29T00:25:35.133Z,20.13
2022-12-29T00:28:21.815Z,21.27
2022-12-29T00:31:08.482Z,21.40
2022-12-29T00:33:55.100Z,14.98
2022-12-29T00:36:29.805Z,18.52
2022-12-29T00:39:22.622Z,18.73
2022-12-29T00:42:10.634Z,18.98
2022-12-29T00:44:40.033Z,18.55
2022-12-29T00:47:09.187Z,18.45
2022-12-29T00:49:37.498Z,20.20
2022-12-29T00:52:09.322Z,20.08
2022-12-29T00:54:40.152Z,21.35
2022-12-29T00:57:13.236Z,23.77
2022-12-29T00:59:44.467Z,22.30
2022-12-29T01:02:14.173Z,19.63
2022-12-29T01:04:43.503Z,19.70
2022-12-29T01:07:12.645Z,18.40
2022-12-29T01:09:59.165Z,17.38
2022-12-29T01:12:46.119Z,18.67
2022-12-29T01:15:17.137Z,17.98
2022-12-29T01:17:47.531Z,16.50
2022-12-29T01:20:16.970Z,18.45
2022-12-29T01:22:46.121Z,17.83
2022-12-29T01:25:15.674Z,17.20
2022-12-29T01:27:46.630Z,15.82
2022-12-29T01:30:15.854Z,15.90
2022-12-29T01:32:45.010Z,17.67
2022-12-29T01:35:17.112Z,18.48
2022-12-29T01:37:47.525Z,17.75
2022-12-29T01:40:17.953Z,17.25
2022-12-29T01:42:49.617Z,18.00
2022-12-29T01:45:20.248Z,17.83
2022-12-29T01:47:55.520Z,17.40
2022-12-29T01:50:30.906Z,17.15
2022-12-29T01:53:06.406Z,17.20
2022-12-29T01:55:42.611Z,15.52
2022-12-29T01:58:15.842Z,17.40
2022-12-29T02:00:45.164Z,19.67
2022-12-29T02:03:14.735Z,17.85
2022-12-29T02:05:50.074Z,18.00
2022-12-29T02:08:19.824Z,17.15
2022-12-29T02:10:50.389Z,18.38
2022-12-29T02:13:20.955Z,16.88
2022-12-29T02:16:01.378Z,18.08
2022-12-29T02:18:43.801Z,16.85
2022-12-29T02:21:50.353Z,17.90
2022-12-29T02:25:31.560Z,16.35
2022-12-29T02:31:08.376Z,15.10
2022-12-29T02:33:54.017Z,16.45
2022-12-29T02:36:31.325Z,16.80
2022-12-29T02:39:11.549Z,16.95
2022-12-29T02:41:53.639Z,15.88
2022-12-29T02:44:35.515Z,15.70
2022-12-29T02:47:16.549Z,17.55
2022-12-29T02:49:56.350Z,17.38
2022-12-29T02:52:32.498Z,19.38
2022-12-29T02:55:01.132Z,19.35
2022-12-29T02:57:37.551Z,18.10
2022-12-29T03:00:11.231Z,20.33
2022-12-29T03:03:25.024Z,19.92
2022-12-29T03:06:13.917Z,19.75
2022-12-29T03:08:51.245Z,18.67
2022-12-29T03:11:37.972Z,20.42
2022-12-29T03:14:34.221Z,16.40
2022-12-29T03:17:11.436Z,22.30
2022-12-29T03:19:49.913Z,21.25
2022-12-29T03:22:31.927Z,19.95
2022-12-29T03:25:11.963Z,22.13
2022-12-29T03:27:46.905Z,18.65
2022-12-29T03:30:17.030Z,19.42
2022-12-29T03:32:51.218Z,18.08
2022-12-29T03:35:27.182Z,17.65
2022-12-29T03:38:05.295Z,16.88
2022-12-29T03:40:36.823Z,16.58
2022-12-29T03:43:06.941Z,17.58
2022-12-29T03:45:39.092Z,17.15
2022-12-29T03:48:08.429Z,16.17
2022-12-29T03:50:42.064Z,17.05
2022-12-29T03:53:12.020Z,16.60
2022-12-29T03:55:42.423Z,17.58
2022-12-29T03:58:13.067Z,17.15
2022-12-29T04:01:14.580Z,16.58
2022-12-29T04:03:43.869Z,18.35
2022-12-29T04:06:14.834Z,16.75
2022-12-29T04:08:50.889Z,15.52
2022-12-29T04:11:20.177Z,16.13
2022-12-29T04:13:49.514Z,15.32
2022-12-29T04:16:23.235Z,15.38
2022-12-29T04:18:53.406Z,15.38
2022-12-29T04:21:24.930Z,16.33
2022-12-29T04:23:54.339Z,17.83
2022-12-29T04:26:23.461Z,19.23
2022-12-29T04:28:59.549Z,11.68
2022-12-29T04:31:37.692Z,15.00
2022-12-29T04:34:07.161Z,15.68
2022-12-29T04:36:37.851Z,15.43
2022-12-29T04:39:07.826Z,16.63
2022-12-29T04:41:38.233Z,15.80
2022-12-29T04:44:09.706Z,17.17
2022-12-29T04:47:11.305Z,15.80
2022-12-29T04:50:18.896Z,18.65
2022-12-29T04:52:59.055Z,17.48
2022-12-29T04:55:29.402Z,18.38
2022-12-29T04:57:58.659Z,19.88
2022-12-29T05:00:29.346Z,19.65
2022-12-29T05:03:02.594Z,20.30
2022-12-29T05:05:32.575Z,21.52
2022-12-29T05:08:05.639Z,21.27
2022-12-29T05:10:34.978Z,23.10
2022-12-29T05:13:13.363Z,21.70
2022-12-29T05:15:51.354Z,19.77
2022-12-29T05:18:21.375Z,18.38
2022-12-29T05:20:51.875Z,18.52
2022-12-29T05:23:24.568Z,16.83
2022-12-29T05:26:07.177Z,16.05
2022-12-29T05:29:09.366Z,16.10
2022-12-29T05:31:38.660Z,16.33
2022-12-29T05:34:09.194Z,17.30
2022-12-29T05:36:38.429Z,18.00
2022-12-29T05:39:11.625Z,16.90
2022-12-29T05:41:40.985Z,17.83
2022-12-29T05:44:35.859Z,17.48
2022-12-29T05:47:27.183Z,15.57
2022-12-29T05:50:14.966Z,14.63
2022-12-29T05:55:33.031Z,13.80
2022-12-29T05:58:02.619Z,13.70
2022-12-29T06:00:31.825Z,14.20
2022-12-29T06:03:02.158Z,15.45
2022-12-29T06:05:31.432Z,16.27
2022-12-29T06:08:00.922Z,16.15
2022-12-29T06:10:32.143Z,15.27
2022-12-29T06:13:11.177Z,16.90
2022-12-29T06:15:45.233Z,16.77
2022-12-29T06:18:19.616Z,16.95
2022-12-29T06:20:52.143Z,16.05
2022-12-29T06:23:21.687Z,16.10
2022-12-29T06:25:52.439Z,16.42
2022-12-29T06:28:21.789Z,18.05
2022-12-29T06:30:51.193Z,18.05
2022-12-29T06:33:22.061Z,16.80
2022-12-29T06:35:51.244Z,15.85
2022-12-29T06:38:20.671Z,15.18
2022-12-29T06:40:51.191Z,17.70
2022-12-29T06:43:23.156Z,19.55
2022-12-29T06:46:21.830Z,22.35
2022-12-29T06:48:51.349Z,23.98
2022-12-29T06:51:20.499Z,21.98
2022-12-29T06:53:50.243Z,21.80
2022-12-29T06:56:22.456Z,22.13
2022-12-29T06:58:52.377Z,23.73
2022-12-29T07:01:21.758Z,21.27
2022-12-29T07:03:51.479Z,22.45
2022-12-29T07:06:20.861Z,21.45
2022-12-29T07:08:50.098Z,20.92
2022-12-29T07:11:19.635Z,21.23
2022-12-29T07:13:53.223Z,19.95
2022-12-29T07:16:23.028Z,21.83
2022-12-29T07:18:52.732Z,20.90
2022-12-29T07:21:22.952Z,21.85
2022-12-29T07:23:53.373Z,22.98
2022-12-29T07:26:22.915Z,20.85
2022-12-29T07:28:53.613Z,19.17
2022-12-29T07:31:25.503Z,17.65
2022-12-29T07:33:55.139Z,18.48
2022-12-29T07:36:27.996Z,18.08
2022-12-29T07:39:00.157Z,16.42
2022-12-29T07:41:30.169Z,17.73
2022-12-29T07:44:00.965Z,16.45
2022-12-29T07:46:59.419Z,16.50
2022-12-29T07:49:29.771Z,15.40
2022-12-29T07:51:58.999Z,16.00
2022-12-29T07:54:28.780Z,15.27
2022-12-29T07:56:58.595Z,15.50
2022-12-29T07:59:29.743Z,13.98
2022-12-29T08:01:59.190Z,14.90
2022-12-29T08:04:28.678Z,13.40
2022-12-29T08:06:58.380Z,14.07
2022-12-29T08:09:27.686Z,12.93
2022-12-29T08:11:57.545Z,14.85
2022-12-29T08:14:28.633Z,14.98
2022-12-29T08:16:57.780Z,14.70
2022-12-29T08:19:27.389Z,16.08
2022-12-29T08:21:57.045Z,15.02
2022-12-29T08:24:26.310Z,17.02
2022-12-29T08:26:56.085Z,15.95
2022-12-29T08:29:25.718Z,15.20
2022-12-29T08:31:56.585Z,14.65
2022-12-29T08:34:26.253Z,13.95
2022-12-29T08:36:55.739Z,14.73
2022-12-29T08:39:25.127Z,13.68
2022-12-29T08:41:54.245Z,13.15
2022-12-29T08:44:24.278Z,13.68
2022-12-29T08:46:55.390Z,12.73
2022-12-29T08:49:24.859Z,13.02
2022-12-29T08:51:54.186Z,12.30
2022-12-29T08:54:24.011Z,12.18
2022-12-29T08:56:54.804Z,12.60
2022-12-29T08:59:28.594Z,12.55
2022-12-29T09:02:00.417Z,11.30
2022-12-29T09:04:30.132Z,12.88
2022-12-29T09:06:59.527Z,13.18
2022-12-29T09:09:28.613Z,13.00
2022-12-29T09:12:02.964Z,12.50
2022-12-29T09:14:32.177Z,11.43
2022-12-29T09:17:20.404Z,11.90
2022-12-29T09:19:49.749Z,11.85
2022-12-29T09:22:19.011Z,12.60
2022-12-29T09:24:48.275Z,10.80
2022-12-29T09:27:18.104Z,10.10
2022-12-29T09:29:47.719Z,10.77
2022-12-29T09:32:19.028Z,10.93
2022-12-29T09:34:49.373Z,10.20
2022-12-29T09:37:18.665Z,10.90
2022-12-29T09:39:54.114Z,10.43
2022-12-29T09:42:32.188Z,11.15
2022-12-29T09:45:16.338Z,10.93
2022-12-29T09:47:48.449Z,10.18
2022-12-29T09:50:26.863Z,9.95
2022-12-29T09:53:03.773Z,9.95
2022-12-29T09:55:39.175Z,9.55
2022-12-29T09:58:19.702Z,10.45
2022-12-29T10:00:56.245Z,10.02
2022-12-29T10:03:30.396Z,9.50
2022-12-29T10:06:13.000Z,10.63
2022-12-29T10:08:48.701Z,9.13
2022-12-29T10:11:33.291Z,10.43
2022-12-29T10:14:23.048Z,10.27
2022-12-29T10:17:02.735Z,10.35
2022-12-29T10:19:57.109Z,10.23
2022-12-29T10:22:47.711Z,10.43
2022-12-29T10:25:21.506Z,8.77
2022-12-29T10:27:52.962Z,9.25
2022-12-29T10:30:22.652Z,9.60
2022-12-29T10:32:56.348Z,9.75
2022-12-29T10:35:33.162Z,10.27
2022-12-29T10:38:08.107Z,9.68
2022-12-29T10:40:44.696Z,10.35
2022-12-29T10:43:27.780Z,9.33
2022-12-29T10:46:04.459Z,8.70
2022-12-29T10:48:37.693Z,8.60
2022-12-29T10:51:10.927Z,8.00
2022-12-29T10:53:47.990Z,8.18
2022-12-29T10:56:31.764Z,8.27
2022-12-29T10:59:08.470Z,7.93
2022-12-29T11:01:49.130Z,8.18
2022-12-29T11:04:37.869Z,7.53
2022-12-29T11:07:15.901Z,6.95
2022-12-29T11:09:47.221Z,7.88
2022-12-29T11:12:27.337Z,7.60
2022-12-29T11:15:17.515Z,7.72
2022-12-29T11:17:50.465Z,7.70
2022-12-29T11:20:38.732Z,8.10
2022-12-29T11:23:31.198Z,8.43
2022-12-29T11:26:31.780Z,7.93
2022-12-29T11:29:24.287Z,8.15
2022-12-29T11:31:56.562Z,7.93
2022-12-29T11:34:28.757Z,8.70
2022-12-29T11:37:04.779Z,8.38
2022-12-29T11:39:43.332Z,9.07
2022-12-29T11:42:22.593Z,9.05
2022-12-29T11:44:53.742Z,8.82
2022-12-29T11:47:30.063Z,9.75
2022-12-29T11:50:02.828Z,8.60
2022-12-29T11:52:37.412Z,9.02
2022-12-29T11:55:23.289Z,9.40
2022-12-29T11:57:55.504Z,8.98
2022-12-29T12:00:30.293Z,9.15
2022-12-29T12:03:02.196Z,9.30
2022-12-29T12:05:40.916Z,8.07
2022-12-29T12:08:21.317Z,7.80
2022-12-29T12:11:01.154Z,8.70
2022-12-29T12:13:37.460Z,8.65
2022-12-29T12:16:12.126Z,7.22
2022-12-29T12:18:49.420Z,7.55
2022-12-29T12:21:27.559Z,7.22
2022-12-29T12:24:16.368Z,7.82
2022-12-29T12:27:00.997Z,7.20
2022-12-29T12:29:40.074Z,7.13
2022-12-29T12:32:19.597Z,6.65
2022-12-29T12:34:51.233Z,6.65
2022-12-29T12:38:03.012Z,6.03
2022-12-29T12:41:15.511Z,5.10
2022-12-29T12:43:53.989Z,4.13
2022-12-29T12:47:05.098Z,4.25
2022-12-29T12:50:29.285Z,4.13
2022-12-29T12:53:24.597Z,3.17
2022-12-29T12:56:21.719Z,3.60
2022-12-29T12:59:07.326Z,3.53
2022-12-29T13:04:53.365Z,3.70
2022-12-29T13:07:36.643Z,3.38
2022-12-29T13:10:28.374Z,3.50
2022-12-29T13:13:18.909Z,3.60
2022-12-29T13:15:56.799Z,3.20
2022-12-29T13:18:37.580Z,3.40
2022-12-29T13:21:16.934Z,3.50
2022-12-29T13:23:56.972Z,3.25
2022-12-29T13:26:34.713Z,3.30
2022-12-29T13:29:14.831Z,2.92
2022-12-29T13:31:58.013Z,3.45
2022-12-29T13:34:38.840Z,3.13
2022-12-29T13:37:16.105Z,3.60
2022-12-29T13:39:52.474Z,3.38
2022-12-29T13:42:23.568Z,3.22
2022-12-29T13:45:02.001Z,3.38
2022-12-29T13:47:38.981Z,3.28
2022-12-29T13:50:17.834Z,3.20
2022-12-29T13:52:57.900Z,3.13
2022-12-29T13:55:32.052Z,3.00
2022-12-29T13:58:12.033Z,3.10
2022-12-29T14:00:52.044Z,3.60
2022-12-29T14:03:51.520Z,3.20
2022-12-29T14:06:29.228Z,2.97
2022-12-29T14:09:01.581Z,2.90
2022-12-29T14:11:36.780Z,3.22
2022-12-29T14:14:16.027Z,3.20
2022-12-29T14:16:46.956Z,3.20
2022-12-29T14:19:21.775Z,3.30
2022-12-29T14:21:57.570Z,3.17
2022-12-29T14:24:42.168Z,2.70
2022-12-29T14:27:53.639Z,3.25
2022-12-29T14:30:52.678Z,3.10
2022-12-29T14:33:24.786Z,3.33
2022-12-29T14:35:56.650Z,3.17
2022-12-29T14:38:32.646Z,3.00
2022-12-29T14:41:39.142Z,3.53
2022-12-29T14:44:21.516Z,3.55
2022-12-29T14:47:00.254Z,3.40
2022-12-29T14:49:33.830Z,5.18
2022-12-29T14:52:22.516Z,5.68
2022-12-29T14:55:03.701Z,3.80
2022-12-29T14:57:38.687Z,3.10
2022-12-29T15:00:17.930Z,2.83
2022-12-29T15:02:51.920Z,3.45
2022-12-29T15:05:34.778Z,3.90
2022-12-29T15:08:06.745Z,4.38
2022-12-29T15:10:43.225Z,4.03
2022-12-29T15:13:23.469Z,4.38
2022-12-29T15:15:53.849Z,3.90
2022-12-29T15:18:31.216Z,4.30
2022-12-29T15:21:03.317Z,8.30
2022-12-29T15:23:37.061Z,8.07
2022-12-29T15:26:08.778Z,6.28
2022-12-29T15:28:43.639Z,5.80
2022-12-29T15:31:16.525Z,3.85
2022-12-29T15:33:48.850Z,4.40
2022-12-29T15:36:24.666Z,3.45
2022-12-29T15:38:55.571Z,4.15
2022-12-29T15:41:33.379Z,4.07
2022-12-29T15:44:17.729Z,3.85
2022-12-29T15:46:46.954Z,5.20
2022-12-29T15:49:17.477Z,7.70
2022-12-29T15:51:47.311Z,6.57
2022-12-29T15:54:20.725Z,5.18
2022-12-29T15:56:52.271Z,6.40
2022-12-29T15:59:31.390Z,7.13
2022-12-29T16:02:07.127Z,9.95
2022-12-29T16:05:01.650Z,7.55
2022-12-29T16:07:39.130Z,7.05
2022-12-29T16:10:31.445Z,7.80
2022-12-29T16:13:07.807Z,7.05
2022-12-29T16:15:37.162Z,7.28
2022-12-29T16:18:06.655Z,6.47
2022-12-29T16:20:43.410Z,8.35
2022-12-29T16:23:22.331Z,7.88
2022-12-29T16:25:55.635Z,9.73
2022-12-29T16:28:27.615Z,8.52
2022-12-29T16:31:04.589Z,7.40
2022-12-29T16:33:49.851Z,10.70
2022-12-29T16:36:33.109Z,10.75
2022-12-29T16:39:28.236Z,9.23
2022-12-29T16:41:59.439Z,8.55
2022-12-29T16:44:31.344Z,7.50
2022-12-29T16:47:21.702Z,7.15
2022-12-29T16:49:55.271Z,7.70
2022-12-29T16:52:32.319Z,6.75
2022-12-29T16:55:03.323Z,5.85
2022-12-29T16:57:38.529Z,6.80
2022-12-29T17:00:20.479Z,7.65
2022-12-29T17:02:51.455Z,10.55
2022-12-29T17:05:21.496Z,10.57
2022-12-29T17:07:52.367Z,10.55
2022-12-29T17:10:21.729Z,10.27
2022-12-29T17:12:52.397Z,10.63
2022-12-29T17:15:28.557Z,8.70
2022-12-29T17:17:58.553Z,7.88
2022-12-29T17:20:30.689Z,8.43
2022-12-29T17:23:00.802Z,9.57
2022-12-29T17:25:36.113Z,8.63
2022-12-29T17:28:15.052Z,8.68
2022-12-29T17:30:44.493Z,9.30
2022-12-29T17:33:18.261Z,8.57
2022-12-29T17:35:53.237Z,8.18
2022-12-29T17:38:29.723Z,8.80
2022-12-29T17:40:59.867Z,7.32
2022-12-29T17:43:36.758Z,7.18
2022-12-29T17:46:09.140Z,6.22
2022-12-29T17:48:38.639Z,6.35
2022-12-29T17:51:08.354Z,6.93
2022-12-29T17:53:37.520Z,8.35
2022-12-29T17:56:07.548Z,8.32
2022-12-29T17:58:38.122Z,8.18
2022-12-29T18:01:08.386Z,11.00
2022-12-29T18:03:41.977Z,10.40
2022-12-29T18:06:13.414Z,9.98
2022-12-29T18:08:44.069Z,10.13
2022-12-29T18:11:32.069Z,9.60
2022-12-29T18:14:02.693Z,7.63
2022-12-29T18:16:32.320Z,8.13
2022-12-29T18:19:01.485Z,6.65
2022-12-29T18:21:30.669Z,7.80
2022-12-29T18:24:00.135Z,9.20
2022-12-29T18:26:35.591Z,9.00
2022-12-29T18:29:06.322Z,9.63
2022-12-29T18:31:36.764Z,9.07
2022-12-29T18:34:15.783Z,9.73
2022-12-29T18:36:45.088Z,10.35
2022-12-29T18:39:14.182Z,11.10
2022-12-29T18:41:43.402Z,11.05
2022-12-29T18:44:15.095Z,11.68
2022-12-29T18:46:44.429Z,12.40
2022-12-29T18:49:15.159Z,14.93
2022-12-29T18:51:44.473Z,24.85
2022-12-29T18:54:29.249Z,17.50
2022-12-29T18:56:59.482Z,12.82
2022-12-29T18:59:30.203Z,11.82
2022-12-29T19:01:59.427Z,11.88
2022-12-29T19:04:29.802Z,12.20
2022-12-29T19:06:59.432Z,11.25
2022-12-29T19:09:30.784Z,11.43
2022-12-29T19:12:00.063Z,11.82
2022-12-29T19:14:31.508Z,13.80
2022-12-29T19:17:00.757Z,13.25
2022-12-29T19:19:30.257Z,13.35
2022-12-29T19:21:59.654Z,14.85
2022-12-29T19:24:29.999Z,15.82
2022-12-29T19:26:59.392Z,14.98
2022-12-29T19:29:30.721Z,14.15
2022-12-29T19:32:00.160Z,14.30
2022-12-29T19:34:31.632Z,14.98
2022-12-29T19:37:01.378Z,14.82
2022-12-29T19:39:36.187Z,15.60
2022-12-29T19:42:05.944Z,15.43
2022-12-29T19:44:37.021Z,15.98
2022-12-29T19:47:25.610Z,15.63
2022-12-29T19:49:58.079Z,15.65
2022-12-29T19:52:29.932Z,16.25
2022-12-29T19:55:01.510Z,15.77
2022-12-29T19:57:32.769Z,15.38
2022-12-29T20:00:05.086Z,14.90
2022-12-29T20:02:41.801Z,14.25
2022-12-29T20:05:12.471Z,14.35
2022-12-29T20:07:44.997Z,14.10
2022-12-29T20:10:14.823Z,13.65
2022-12-29T20:12:44.359Z,14.57
2022-12-29T20:15:16.546Z,14.85
2022-12-29T20:20:45.674Z,14.18
2022-12-29T20:23:15.987Z,18.27
2022-12-29T20:25:56.279Z,16.77
2022-12-29T20:28:27.613Z,18.55
2022-12-29T20:31:01.954Z,17.92
2022-12-29T20:33:33.787Z,17.60
2022-12-29T20:36:09.505Z,18.05
2022-12-29T20:38:40.089Z,17.00
2022-12-29T20:41:18.159Z,16.65
2022-12-29T20:43:49.356Z,16.88
2022-12-29T20:46:32.858Z,17.10
2022-12-29T20:49:05.460Z,18.60
2022-12-29T20:52:04.578Z,18.65
2022-12-29T20:54:26.651Z,18.60
2022-12-29T20:56:56.246Z,19.25
2022-12-29T20:59:29.547Z,18.92
2022-12-29T21:02:01.949Z,18.80
2022-12-29T21:04:49.942Z,18.70
2022-12-29T21:07:21.910Z,17.90
2022-12-29T21:09:51.835Z,19.45
2022-12-29T21:12:21.390Z,20.80
2022-12-29T21:14:51.846Z,19.13
2022-12-29T21:17:22.729Z,18.20
2022-12-29T21:19:52.665Z,19.83
2022-12-29T21:22:22.278Z,19.70
2022-12-29T21:24:54.132Z,21.05
2022-12-29T21:27:24.197Z,20.05
2022-12-29T21:29:54.769Z,22.80
2022-12-29T21:32:25.689Z,23.67
2022-12-29T21:34:55.769Z,20.52
2022-12-29T21:37:25.104Z,16.48
2022-12-29T21:39:55.319Z,16.40
2022-12-29T21:42:28.976Z,16.98
2022-12-29T21:45:20.426Z,15.52
2022-12-29T21:48:10.593Z,16.92
2022-12-29T21:50:57.830Z,15.60
2022-12-29T21:53:37.917Z,14.73
2022-12-29T21:56:11.160Z,16.10
2022-12-29T21:59:00.458Z,16.98
2022-12-29T22:01:50.782Z,15.65
2022-12-29T22:04:43.668Z,16.40
2022-12-29T22:07:32.086Z,17.23
2022-12-29T22:10:18.892Z,15.63
2022-12-29T22:13:01.132Z,16.70
2022-12-29T22:15:32.937Z,16.85
2022-12-29T22:18:04.372Z,15.18
2022-12-29T22:20:37.322Z,15.93
2022-12-29T22:23:10.027Z,15.95
2022-12-29T22:25:41.287Z,15.65
2022-12-29T22:28:10.570Z,15.48
2022-12-29T22:30:39.731Z,14.48
2022-12-29T22:33:09.278Z,14.10
2022-12-29T22:35:39.969Z,13.57
2022-12-29T22:38:09.117Z,14.35
2022-12-29T22:40:38.422Z,14.98
2022-12-29T22:43:12.902Z,15.40
2022-12-29T22:45:43.034Z,16.02
2022-12-29T22:48:12.372Z,16.90
2022-12-29T22:50:43.087Z,15.77
2022-12-29T22:53:12.586Z,16.50
2022-12-29T22:55:41.754Z,16.95
2022-12-29T22:58:10.889Z,15.30
2022-12-29T23:00:40.221Z,17.05
2022-12-29T23:03:09.504Z,16.67
2022-12-29T23:05:38.874Z,16.23
2022-12-29T23:08:10.935Z,13.80
2022-12-29T23:10:40.093Z,14.85
2022-12-29T23:13:09.201Z,15.30
2022-12-29T23:15:38.573Z,15.50
2022-12-29T23:18:08.032Z,14.35
2022-12-29T23:20:37.439Z,15.73
2022-12-29T23:23:06.686Z,16.42
2022-12-29T23:25:38.821Z,16.33
2022-12-29T23:28:10.095Z,15.73
2022-12-29T23:30:39.232Z,15.40
2022-12-29T23:33:08.336Z,15.88
2022-12-29T23:35:37.423Z,15.63
2022-12-29T23:38:06.643Z,15.63
2022-12-29T23:40:37.311Z,14.70
2022-12-29T23:43:06.485Z,14.88
2022-12-29T23:45:37.297Z,14.73
2022-12-29T23:48:07.636Z,14.95
2022-12-29T23:50:40.146Z,14.38
2022-12-29T23:53:10.604Z,16.40
2022-12-29T23:55:44.786Z,15.27
2022-12-29T23:58:13.963Z,14.10
